Погода Чьяпасна 2 недели

Чьяпас, Мексика

26 февраля-09 марта
  • 26февраля
    Сегодня
    +17°
    +32°
    Ясно и безоблачно
    ВремяПогодаТемператураВлажностьДавлениеВетер, м/сВероятность осадков
    00:00Практически безоблачно+20°C89 %716 мм1.4 м/с2 %
    03:00Облачно с прояснениями+18°C95 %714 мм1.5 м/с2 %
    06:00Облачно с прояснениями+17°C93 %715 мм1.2 м/с2 %
    09:00Ясно и безоблачно+22°C65 %716 мм0.8 м/с2 %
    12:00Ясно и безоблачно+30°C32 %715 мм0.6 м/с2 %
    15:00Ясно и безоблачно+30°C39 %713 мм3.6 м/с2 %
    18:00Ясно и безоблачно+23°C66 %712 мм7.5 м/с2 %
    21:00Облачно с прояснениями+23°C85 %714 мм5.9 м/с2 %
  • 27февраля
    Вторник
    +19°
    +35°
    Ясно и безоблачно
    ВремяПогодаТемператураВлажностьДавлениеВетер, м/сВероятность осадков
    00:00Практически безоблачно+22°C92 %714 мм0.9 м/с2 %
    03:00Небольшая облачность+20°C94 %712 мм1.3 м/с2 %
    06:00Облачно с прояснениями+18°C93 %712 мм0.3 м/с2 %
    09:00Ясно и безоблачно+23°C68 %714 мм2.3 м/с2 %
    12:00Ясно и безоблачно+31°C28 %714 мм1.2 м/с2 %
    15:00Ясно и безоблачно+34°C15 %710 мм1.4 м/с2 %
    18:00Ясно и безоблачно+27°C53 %710 мм5.7 м/с2 %
    21:00Ясно и безоблачно+25°C70 %712 мм4.0 м/с2 %
  • 28февраля
    Среда
    +19°
    +35°
    Ясно и безоблачно
    ВремяПогодаТемператураВлажностьДавлениеВетер, м/сВероятность осадков
    00:00Ясно и безоблачно+22°C84 %712 мм1.6 м/с2 %
    03:00Ясно и безоблачно+20°C85 %711 мм1.0 м/с2 %
    06:00Ясно и безоблачно+19°C83 %711 мм0.2 м/с2 %
    09:00Ясно и безоблачно+25°C44 %714 мм3.3 м/с2 %
    12:00Ясно и безоблачно+32°C27 %713 мм2.2 м/с2 %
    15:00Ясно и безоблачно+35°C19 %710 мм3.1 м/с2 %
    18:00Ясно и безоблачно+28°C30 %711 мм6.8 м/с2 %
    21:00Ясно и безоблачно+26°C44 %713 мм4.1 м/с2 %
  • 29февраля
    Четверг
    +19°
    +32°
    Ясно и безоблачно
    ВремяПогодаТемператураВлажностьДавлениеВетер, м/сВероятность осадков
    00:00Ясно и безоблачно+23°C50 %713 мм1.6 м/с2 %
    03:00Ясно и безоблачно+21°C58 %712 мм1.0 м/с2 %
    06:00Ясно и безоблачно+20°C68 %713 мм1.0 м/с2 %
    09:00Ясно и безоблачно+25°C52 %715 мм1.6 м/с2 %
    12:00Ясно и безоблачно+31°C43 %715 мм3.1 м/с3 %
    15:00Ясно и безоблачно+31°C37 %712 мм5.3 м/с4 %
    18:00Ясно и безоблачно+26°C51 %712 мм8.7 м/с2 %
    21:00Практически безоблачно+25°C79 %714 мм6.3 м/с4 %
Мы используем cookies
Соглашаюсь